Rayong, Thailand

3:59 PM +07 on March 27, 2017 (GMT +0700)
Bang Saray | | Change Station

Elev 170 ft 12.74 °N, 100.90 °E | Updated 30 seconds ago

Rain
Rain
82.7 °F
Feels Like 91 °F
N
3.0
Wind Variable Wind from NNE
Gusts 5.0 mph

Today
High -- | Low -- °F
--% Chance of Precip.
Yesterday
High -- | Low -- °F
Precip. -- in
Pressure 29.89 in
Visibility 3.1 miles
Clouds Few 1800 ft
Scattered Clouds 3500 ft
Mostly Cloudy 10000 ft
Heat Index 91 °F
Dew Point 76 °F
Humidity 80%
Rainfall 0.66 in
Snow Depth Not available.
6:15 AM 6:27 PM
Waning Crescent, 1% visible
METAR VTBU 270830Z 03006KT 5000 -RA BR FEW018CB SCT035 BKN100 27/22 Q1012 NOSIG
Pressure 29.89 in
Visibility 3.1 miles
Clouds Few 1800 ft
Scattered Clouds 3500 ft
Mostly Cloudy 10000 ft
Heat Index 91 °F
Dew Point 76 °F
Humidity 80%
Rainfall 0.66 in
Snow Depth Not available.
6:15 AM 6:27 PM
Waning Crescent, 1% visible
METAR VTBU 270830Z 03006KT 5000 -RA BR FEW018CB SCT035 BKN100 27/22 Q1012 NOSIG

Get Severe Weather Alerts

Thanks for signing up!

Be on the lookout for a verification email in your inbox.

You'll start receiving the daily forecast at 8 AM.

×

10-Day Weather Forecast

No radar image for this location.
×

Almanac

Astronomy

Mar. 27, 2017 Rise Set
Actual Time
Civil Twilight
Nautical Twilight
Astronomical Twilight
Moon
Length of Visible Light
Length of Day
Tomorrow will be .
, % of the Moon is Illuminated

Today's Extremes

Country Highs Country Lows

Community

WunderPhotos

Upload Photos

1,962,540 photos uploaded!

WunderBlog® & News

Nearby

Air Quality

  Air Quality AQ Index Pollutant
Not available.

Snow Depth

Station Depth Elevation

Earthquake Activity

City Distance Mag. Time & Date
Minimum magnitude displayed is 2.5.

Earthquake Activity

City Distance Mag. Time & Date
Minimum magnitude displayed is 2.5.

Coastal Water Temperatures

Place Temperature

Stations

Nearby Weather Stations

Station Location Temp. Windchill Dew Point Humidity Wind Precip. Elev Updated Type